International Virtual Aviation Organisation

Russian Federation and Kazakhstan MCD

 

Карточка аэропорта USTR

Внимание!
Информация на этой странице в стадии наполнения.
Если вы не увидели какой-то информации, или заметили неточность - пожалуйста сообщите нам!
Спасибо!
Команда RU-STAFF
Название аэропортаРощино
Название аэропорта (англ.)Roshschino
Превышение378 ft. (115.2 m.)
Координаты57°10.098', 65°19.002'
Высота перехода700m
Эшелон переходаFL040
Коды ответчика5101-5137
Зона ОрВДТюмень РПИ (USTV)
Данные METARUSTR 051900Z 22003MPS 0400 0300N R21/0800 FZFG SCT004 M00/M01 Q1008 R21/290060 R30/290060 TEMPO 0100 FZFG VV002 RMK QBB120 QFE746/0995
Проноз погоды (TAF)USTR 051832Z 0518/0618 21005MPS 0300 FZFG VV002 TEMPO 0518/0603 18003MPS 1200 BR OVC004 FM060300 18005MPS 3100 -SHRA BR OVC011CB BECMG 0607/0609 27005G10MPS PROB40 TEMPO 0607/0612 -TSRA BECMG 0612/0613 35007G13MPS
NOTAMshow/hide NOTAM
AWOS   TABLE

Информация о ВПП

ВПП Длина ВПП (м.) Покрытие Курс ВПП Частота ILS
033003Асфальтобетон34108.3
213003Асфальтобетон214110.7
122704Асфальтобетон121 
302704Асфальтобетон301 

Диспетчерские позиции

Позывной Наименование органа УВД Частота
USTR_GNDТюмень-Руление119.000
USTR_TWRТюмень-Старт118.200
USTR_APPТюмень-Подход126.100



Спутниковое изображение